Time;durP1;ratioP1;P1;durP2;ratioP2;P2;SDS_P1;SDS_P2;PMS_P1;PMS_P2;Temp;Humidity;BMP_temperature;BMP_pressure;BME280_temperature;BME280_humidity;BME280_pressure;Samples;Min_cycle;Max_cycle;Signal;HPM_P1;HPM_P2
2024/02/06 00:02:00;;;;;;;13.90;6.80;;;;;;;5.68;98.13;98800.41;102182;1272;138779;-66
2024/02/06 00:04:28;;;;;;;13.20;5.70;;;;;;;5.76;98.88;98797.73;102404;1272;97808;-67
2024/02/06 00:06:55;;;;;;;16.70;5.70;;;;;;;5.83;99.32;98800.06;102229;1267;138605;-68
2024/02/06 00:09:22;;;;;;;11.40;5.30;;;;;;;5.90;99.49;98795.48;102338;1272;97806;-66
2024/02/06 00:11:49;;;;;;;14.60;6.30;;;;;;;5.99;99.86;98786.91;102337;1267;111505;-68
2024/02/06 00:14:16;;;;;;;16.10;6.30;;;;;;;6.07;99.99;98790.23;102191;1267;138277;-65
2024/02/06 00:16:43;;;;;;;14.70;6.40;;;;;;;6.14;99.94;98789.30;102318;1271;98430;-66
2024/02/06 00:19:09;;;;;;;21.50;6.80;;;;;;;6.20;99.97;98783.38;102282;1272;138571;-68
2024/02/06 00:21:55;;;;;;;14.50;6.90;;;;;;;6.26;99.95;98782.60;102282;1270;97806;-69
2024/02/06 00:24:22;;;;;;;15.40;7.10;;;;;;;6.31;99.83;98789.51;102406;1272;111019;-67
2024/02/06 00:26:49;;;;;;;16.30;7.50;;;;;;;6.35;99.79;98793.16;102188;1267;138264;-66
2024/02/06 00:29:16;;;;;;;16.10;7.40;;;;;;;6.38;99.87;98798.40;102312;1270;97818;-67
2024/02/06 00:31:43;;;;;;;19.80;8.40;;;;;;;6.40;99.86;98792.45;102217;1267;138242;-66
2024/02/06 00:34:10;;;;;;;20.10;8.60;;;;;;;6.44;99.96;98800.73;102289;1272;97834;-66
2024/02/06 00:36:37;;;;;;;22.80;8.70;;;;;;;6.48;100.00;98794.21;102369;1267;110863;-67
2024/02/06 00:39:04;;;;;;;19.50;8.50;;;;;;;6.51;100.00;98799.11;102206;1267;138619;-67
2024/02/06 00:41:31;;;;;;;17.20;8.50;;;;;;;6.49;100.00;98784.30;102309;1267;97846;-67
2024/02/06 00:43:58;;;;;;;19.80;8.70;;;;;;;6.55;100.00;98782.52;102130;1272;138371;-67
2024/02/06 00:46:25;;;;;;;20.00;8.40;;;;;;;6.58;100.00;98771.70;102401;1267;97971;-67
2024/02/06 00:48:53;;;;;;;18.90;8.50;;;;;;;6.59;100.00;98777.52;102268;1267;140165;-67
2024/02/06 00:51:20;;;;;;;19.20;8.10;;;;;;;6.60;100.00;98779.75;102326;1267;106781;-66
2024/02/06 00:53:47;;;;;;;19.90;8.90;;;;;;;6.61;100.00;98776.39;102281;1272;97826;-65
2024/02/06 00:56:14;;;;;;;20.20;8.60;;;;;;;6.62;100.00;98784.47;102223;1273;138196;-66
2024/02/06 00:58:41;;;;;;;18.40;9.30;;;;;;;6.63;100.00;98783.58;102363;1267;97959;-67
2024/02/06 01:01:08;;;;;;;20.60;9.20;;;;;;;6.64;100.00;98776.84;102266;1267;138575;-67
2024/02/06 01:03:35;;;;;;;22.30;9.30;;;;;;;6.65;100.00;98766.60;102322;1267;107390;-67
2024/02/06 01:06:02;;;;;;;19.80;8.90;;;;;;;6.66;100.00;98780.72;102398;1272;97856;-67
2024/02/06 01:08:28;;;;;;;21.20;9.10;;;;;;;6.66;100.00;98774.84;102133;1267;138433;-66
2024/02/06 01:10:55;;;;;;;17.90;9.60;;;;;;;6.67;100.00;98775.50;102224;1267;97699;-66
2024/02/06 01:13:22;;;;;;;24.50;9.80;;;;;;;6.67;100.00;98773.96;102344;1272;138393;-67
2024/02/06 01:15:49;;;;;;;23.90;9.70;;;;;;;6.69;100.00;98781.33;102363;1270;109586;-66
2024/02/06 01:18:16;;;;;;;20.20;9.40;;;;;;;6.70;100.00;98777.46;102354;1272;99048;-66
2024/02/06 01:20:43;;;;;;;21.90;9.00;;;;;;;6.71;100.00;98779.33;102270;1273;139149;-66
2024/02/06 01:23:10;;;;;;;22.20;9.10;;;;;;;6.73;100.00;98776.48;102337;1271;97834;-66
2024/02/06 01:25:37;;;;;;;26.30;9.40;;;;;;;6.72;100.00;98775.64;102288;1267;138175;-66
2024/02/06 01:28:05;;;;;;;17.90;8.10;;;;;;;6.74;100.00;98771.41;102267;1268;107899;-67
2024/02/06 01:30:31;;;;;;;20.20;8.70;;;;;;;6.75;99.90;98773.44;102433;1267;98382;-66
2024/02/06 01:32:58;;;;;;;16.70;7.70;;;;;;;6.77;99.90;98772.69;102262;1267;137908;-67
2024/02/06 01:35:26;;;;;;;19.60;7.60;;;;;;;6.80;99.64;98779.98;102384;1267;97866;-67
2024/02/06 01:37:52;;;;;;;16.10;7.40;;;;;;;6.82;99.42;98775.77;102257;1270;138073;-66
2024/02/06 01:40:19;;;;;;;16.10;7.60;;;;;;;6.84;99.21;98769.99;102400;1267;107520;-66
2024/02/06 01:42:47;;;;;;;16.00;7.90;;;;;;;6.86;99.11;98776.83;102302;1267;99546;-67
2024/02/06 01:45:14;;;;;;;13.90;7.50;;;;;;;6.87;98.92;98771.77;102346;1271;105959;-67
2024/02/06 01:47:42;;;;;;;14.60;6.80;;;;;;;6.89;98.64;98772.17;102410;1267;97805;-66
2024/02/06 01:50:10;;;;;;;16.70;7.50;;;;;;;6.90;98.32;98766.79;102389;1271;139720;-67
2024/02/06 01:52:38;;;;;;;16.80;6.60;;;;;;;6.91;98.12;98777.27;102361;1272;108316;-66
2024/02/06 01:55:22;;;;;;;16.40;6.40;;;;;;;6.94;97.83;98771.66;102269;1267;138515;-66
2024/02/06 01:57:50;;;;;;;15.40;6.30;;;;;;;6.95;97.72;98769.88;102351;1267;107121;-66
2024/02/06 02:00:17;;;;;;;13.80;6.10;;;;;;;6.97;97.50;98763.55;102414;1267;97908;-67
2024/02/06 02:02:44;;;;;;;11.90;5.60;;;;;;;7.00;97.16;98772.45;102552;1272;138718;-66
2024/02/06 02:09:14;;;;;;;13.00;6.20;;;;;;;7.05;96.73;98770.16;102366;1267;99491;-67
2024/02/06 02:11:41;;;;;;;11.40;5.50;;;;;;;7.06;96.75;98770.30;102327;1267;106862;-66
2024/02/06 02:14:09;;;;;;;13.60;5.70;;;;;;;7.06;96.65;98774.95;102188;1267;138835;-66
2024/02/06 02:16:36;;;;;;;10.70;5.00;;;;;;;7.06;96.59;98782.05;102424;1267;111870;-67
2024/02/06 02:19:03;;;;;;;13.00;5.40;;;;;;;7.07;96.43;98771.11;102141;1267;138719;-67
2024/02/06 02:21:30;;;;;;;11.70;5.30;;;;;;;7.07;96.36;98774.54;102278;1267;98327;-66
2024/02/06 02:23:57;;;;;;;16.30;5.50;;;;;;;7.08;96.08;98770.70;102286;1273;106523;-66
2024/02/06 02:26:25;;;;;;;12.90;5.10;;;;;;;7.07;95.90;98756.40;102250;1272;139812;-66
2024/02/06 02:28:52;;;;;;;10.80;5.20;;;;;;;7.08;95.64;98745.48;102365;1271;110076;-66
2024/02/06 02:31:21;;;;;;;12.90;3.60;;;;;;;7.10;95.42;98751.27;102225;1268;138668;-67
2024/02/06 02:33:48;;;;;;;8.70;3.70;;;;;;;7.12;95.21;98759.81;102358;1267;97816;-66
2024/02/06 02:36:15;;;;;;;7.60;3.50;;;;;;;7.15;95.10;98750.52;102242;1272;107102;-66
2024/02/06 02:38:43;;;;;;;7.60;3.30;;;;;;;7.16;94.71;98753.09;102149;1267;138299;-66
2024/02/06 02:41:11;;;;;;;7.90;3.30;;;;;;;7.19;94.24;98759.38;102364;1268;112187;-66
2024/02/06 02:43:38;;;;;;;9.90;3.60;;;;;;;7.20;94.25;98761.57;102267;1273;138216;-66
2024/02/06 02:46:05;;;;;;;8.20;2.80;;;;;;;7.22;93.91;98760.61;102333;1270;97853;-66
2024/02/06 02:48:32;;;;;;;8.10;2.80;;;;;;;7.25;93.70;98758.42;102312;1267;107223;-66
2024/02/06 02:50:59;;;;;;;8.20;2.70;;;;;;;7.28;93.51;98762.78;102266;1273;139506;-66
2024/02/06 02:53:26;;;;;;;8.70;2.50;;;;;;;7.31;93.10;98753.83;102407;1272;112406;-67
2024/02/06 02:55:53;;;;;;;6.00;2.40;;;;;;;7.36;92.67;98750.70;102228;1267;138305;-66
2024/02/06 02:58:20;;;;;;;5.60;2.10;;;;;;;7.39;92.65;98760.79;102221;1272;97930;-65
2024/02/06 03:00:47;;;;;;;4.10;1.70;;;;;;;7.42;92.21;98756.67;102448;1267;107055;-66
2024/02/06 03:03:14;;;;;;;5.90;1.80;;;;;;;7.44;91.61;98749.83;102269;1273;138384;-66
2024/02/06 03:05:41;;;;;;;4.80;1.70;;;;;;;7.48;91.56;98756.24;102470;1267;111385;-66
2024/02/06 03:08:09;;;;;;;4.50;1.80;;;;;;;7.52;91.35;98758.30;102207;1272;138509;-66
2024/02/06 03:10:36;;;;;;;5.90;1.80;;;;;;;7.55;90.93;98750.23;102380;1267;97889;-66
2024/02/06 03:13:03;;;;;;;5.30;1.70;;;;;;;7.59;90.68;98760.77;102266;1267;139173;-67
2024/02/06 03:15:30;;;;;;;3.00;2.60;;;;;;;7.62;90.30;98746.27;102321;1272;97834;-66
2024/02/06 03:17:59;;;;;;;5.70;2.00;;;;;;;7.65;90.34;98757.05;102234;1267;110315;-66
2024/02/06 03:20:26;;;;;;;4.90;1.90;;;;;;;7.65;89.80;98751.48;102241;1272;137765;-67
2024/02/06 03:22:53;;;;;;;3.80;1.50;;;;;;;7.63;89.64;98748.81;102348;1267;97890;-66
2024/02/06 03:25:21;;;;;;;6.20;1.80;;;;;;;7.61;89.80;98761.54;102265;1267;138379;-66
2024/02/06 03:27:48;;;;;;;5.60;1.70;;;;;;;7.62;89.72;98762.21;102415;1267;98277;-65
2024/02/06 03:30:16;;;;;;;5.80;2.10;;;;;;;7.61;89.23;98748.59;102357;1267;110325;-66
2024/02/06 03:32:42;;;;;;;7.10;2.30;;;;;;;7.59;89.56;98766.98;102180;1268;138225;-67
2024/02/06 03:35:10;;;;;;;6.90;2.00;;;;;;;7.62;89.68;98761.86;102253;1267;97837;-66
2024/02/06 03:37:38;;;;;;;7.00;2.10;;;;;;;7.62;89.38;98754.41;102389;1267;138167;-67
2024/02/06 03:40:08;;;;;;;6.60;1.90;;;;;;;7.62;89.10;98753.35;102385;1267;97729;-67
2024/02/06 03:42:37;;;;;;;6.70;2.00;;;;;;;7.64;88.88;98754.31;102395;1268;110676;-67
2024/02/06 03:45:04;;;;;;;5.20;1.90;;;;;;;7.64;88.79;98749.11;102258;1272;139232;-67
2024/02/06 03:47:31;;;;;;;3.90;2.00;;;;;;;7.65;88.90;98761.17;102370;1272;97828;-67
2024/02/06 03:49:58;;;;;;;6.60;2.30;;;;;;;7.66;88.86;98759.95;102244;1268;138044;-67
2024/02/06 03:52:25;;;;;;;7.10;2.00;;;;;;;7.63;88.79;98753.84;102369;1272;97809;-66
2024/02/06 03:54:51;;;;;;;4.60;2.10;;;;;;;7.64;88.81;98752.77;102308;1268;111809;-67
2024/02/06 03:57:18;;;;;;;3.90;1.60;;;;;;;7.65;88.90;98751.33;102174;1267;107926;-66
2024/02/06 03:59:47;;;;;;;5.80;1.70;;;;;;;7.65;88.71;98753.38;102360;1267;97933;-67
2024/02/06 04:02:14;;;;;;;4.30;1.60;;;;;;;7.67;88.65;98756.08;102384;1269;138388;-67
2024/02/06 04:04:41;;;;;;;3.90;1.60;;;;;;;7.69;88.87;98755.46;102339;1267;97832;-67
2024/02/06 04:07:08;;;;;;;4.30;1.80;;;;;;;7.72;88.82;98749.80;102247;1272;138222;-67
2024/02/06 04:09:35;;;;;;;5.30;2.00;;;;;;;7.73;88.76;98753.58;102331;1270;107904;-67
2024/02/06 04:12:02;;;;;;;4.20;2.00;;;;;;;7.73;88.77;98754.77;102382;1272;98365;-66
2024/02/06 04:14:28;;;;;;;4.10;2.20;;;;;;;7.75;88.84;98752.29;102178;1267;138957;-66
2024/02/06 04:16:55;;;;;;;4.90;2.30;;;;;;;7.78;88.95;98750.73;102269;1273;97896;-67
2024/02/06 04:19:23;;;;;;;3.60;2.40;;;;;;;7.80;88.70;98749.06;102289;1267;138209;-67
2024/02/06 04:21:50;;;;;;;7.50;3.20;;;;;;;7.79;88.70;98748.25;102351;1268;108045;-67
2024/02/06 04:24:17;;;;;;;6.60;2.30;;;;;;;7.79;89.00;98752.45;102347;1267;98042;-67
2024/02/06 04:26:45;;;;;;;6.30;2.60;;;;;;;7.77;89.03;98753.54;102254;1267;138141;-67
2024/02/06 04:29:12;;;;;;;5.70;2.60;;;;;;;7.78;89.01;98749.39;102343;1267;97017;-66
2024/02/06 04:31:39;;;;;;;7.00;2.90;;;;;;;7.75;89.12;98745.33;102275;1267;138146;-66
2024/02/06 04:34:06;;;;;;;4.10;2.30;;;;;;;7.74;89.23;98748.33;102283;1267;108423;-66
2024/02/06 04:36:33;;;;;;;7.50;2.80;;;;;;;7.76;89.48;98736.83;102197;1273;99488;-66
2024/02/06 04:39:00;;;;;;;6.10;2.80;;;;;;;7.77;89.59;98735.23;102306;1267;138005;-66
2024/02/06 04:41:27;;;;;;;5.10;3.20;;;;;;;7.77;89.62;98735.91;102397;1270;97931;-66
2024/02/06 04:43:53;;;;;;;7.10;3.40;;;;;;;7.78;89.76;98743.32;102264;1267;137755;-66
2024/02/06 04:46:20;;;;;;;7.10;3.10;;;;;;;7.79;89.87;98740.16;102351;1267;108086;-66
2024/02/06 04:48:47;;;;;;;8.80;3.50;;;;;;;7.76;89.90;98748.25;102442;1273;97865;-66
2024/02/06 04:51:14;;;;;;;5.30;2.90;;;;;;;7.75;90.19;98742.94;102296;1268;137847;-66
2024/02/06 04:53:41;;;;;;;9.50;3.80;;;;;;;7.74;90.34;98738.31;102265;1268;97828;-66
2024/02/06 04:56:09;;;;;;;5.70;3.40;;;;;;;7.76;90.44;98741.70;102235;1267;138059;-66
2024/02/06 04:58:36;;;;;;;9.30;3.50;;;;;;;7.75;90.60;98733.23;102428;1268;107498;-66
2024/02/06 05:01:04;;;;;;;4.40;3.20;;;;;;;7.73;90.90;98734.89;102330;1272;138411;-67
2024/02/06 05:03:31;;;;;;;6.60;3.90;;;;;;;7.72;91.09;98725.08;102414;1268;107337;-66
2024/02/06 05:05:58;;;;;;;7.40;3.90;;;;;;;7.71;91.33;98734.61;102419;1267;96137;-66
2024/02/06 05:08:25;;;;;;;8.10;4.20;;;;;;;7.70;91.51;98732.23;102298;1273;138123;-65
2024/02/06 05:10:56;;;;;;;8.90;3.60;;;;;;;7.68;91.74;98728.20;102369;1272;107769;-66
2024/02/06 05:13:23;;;;;;;6.90;4.40;;;;;;;7.67;91.90;98734.25;102322;1273;138847;-66
2024/02/06 05:15:50;;;;;;;10.90;4.80;;;;;;;7.67;92.09;98734.79;102422;1267;108156;-66
2024/02/06 05:18:17;;;;;;;6.30;4.50;;;;;;;7.67;92.31;98734.46;102394;1268;97947;-66
2024/02/06 05:20:44;;;;;;;8.10;4.90;;;;;;;7.65;92.75;98723.98;102233;1267;139906;-66
2024/02/06 05:23:11;;;;;;;10.30;4.60;;;;;;;7.66;93.25;98723.96;102386;1267;107132;-66
2024/02/06 05:25:37;;;;;;;11.50;4.90;;;;;;;7.64;93.44;98724.05;102390;1267;138795;-66
2024/02/06 05:28:06;;;;;;;6.90;4.50;;;;;;;7.61;93.72;98717.60;102432;1267;108324;-66
2024/02/06 05:30:35;;;;;;;9.70;5.70;;;;;;;7.57;93.80;98722.11;102466;1273;97832;-67
2024/02/06 05:33:02;;;;;;;14.90;6.30;;;;;;;7.54;94.28;98717.90;102346;1267;137331;-66
2024/02/06 05:35:29;;;;;;;11.50;6.20;;;;;;;7.53;94.52;98730.21;102342;1273;107947;-66
2024/02/06 05:37:56;;;;;;;10.10;6.20;;;;;;;7.50;94.59;98726.55;102286;1267;139147;-66
2024/02/06 05:40:23;;;;;;;12.60;7.30;;;;;;;7.48;94.75;98722.81;102320;1270;108077;-66
2024/02/06 05:42:50;;;;;;;13.70;6.70;;;;;;;7.45;95.15;98718.48;102423;1270;97866;-66
2024/02/06 05:45:17;;;;;;;12.50;7.20;;;;;;;7.41;95.34;98730.41;102416;1272;110750;-66
2024/02/06 05:47:44;;;;;;;11.30;7.30;;;;;;;7.38;95.69;98716.72;102332;1273;108592;-66
2024/02/06 05:50:12;;;;;;;12.20;7.80;;;;;;;7.34;95.88;98716.03;102279;1270;138490;-67
2024/02/06 05:52:39;;;;;;;10.40;7.50;;;;;;;7.31;96.28;98715.30;102626;1267;105431;-67
2024/02/06 05:55:08;;;;;;;12.50;7.30;;;;;;;7.27;96.36;98717.19;102267;1270;139953;-67
2024/02/06 05:57:35;;;;;;;12.60;8.50;;;;;;;7.24;96.35;98717.16;102346;1267;110875;-67
2024/02/06 06:00:03;;;;;;;10.60;7.40;;;;;;;7.22;96.63;98711.02;102368;1272;108730;-66
2024/02/06 06:02:32;;;;;;;14.10;9.00;;;;;;;7.21;96.84;98700.50;102219;1267;139411;-66
2024/02/06 06:04:58;;;;;;;14.10;8.70;;;;;;;7.19;96.94;98702.13;102375;1270;107317;-66
2024/02/06 06:07:25;;;;;;;15.10;9.30;;;;;;;7.18;97.18;98701.15;102290;1272;138545;-66
2024/02/06 06:09:53;;;;;;;14.80;9.00;;;;;;;7.17;97.27;98705.86;102410;1267;110419;-66
2024/02/06 06:12:20;;;;;;;14.60;8.90;;;;;;;7.16;97.31;98702.10;102337;1268;107958;-67
2024/02/06 06:14:46;;;;;;;13.50;8.80;;;;;;;7.13;97.80;98707.08;102344;1272;138246;-67
2024/02/06 06:17:13;;;;;;;13.70;8.80;;;;;;;7.11;98.01;98703.86;102324;1273;106876;-65
2024/02/06 06:19:42;;;;;;;13.90;9.10;;;;;;;7.09;97.97;98714.84;102290;1267;138934;-67
2024/02/06 06:22:09;;;;;;;13.90;8.80;;;;;;;7.10;97.99;98712.23;102344;1273;110243;-66
2024/02/06 06:24:36;;;;;;;15.80;9.50;;;;;;;7.09;97.95;98710.88;102396;1272;107120;-66
2024/02/06 06:27:03;;;;;;;15.40;9.10;;;;;;;7.07;98.20;98718.90;102234;1272;138292;-67
2024/02/06 06:29:30;;;;;;;15.20;8.50;;;;;;;7.06;98.31;98722.07;102377;1270;106992;-65
2024/02/06 06:31:57;;;;;;;14.40;8.60;;;;;;;7.05;98.33;98729.20;102254;1272;138687;-66
2024/02/06 06:34:24;;;;;;;14.00;9.20;;;;;;;7.05;98.30;98726.96;102390;1268;110731;-66
2024/02/06 06:36:51;;;;;;;13.50;8.60;;;;;;;7.05;98.25;98726.43;102306;1268;109093;-67
2024/02/06 06:39:18;;;;;;;14.90;9.20;;;;;;;7.06;98.27;98727.11;102415;1273;97703;-67
2024/02/06 06:41:45;;;;;;;14.30;9.00;;;;;;;7.05;98.40;98721.27;102356;1267;107589;-67
2024/02/06 06:44:12;;;;;;;15.50;9.10;;;;;;;7.04;98.29;98733.91;102286;1272;138529;-67
2024/02/06 06:46:39;;;;;;;18.50;9.20;;;;;;;7.03;98.31;98734.14;102371;1268;110771;-67
2024/02/06 06:49:06;;;;;;;14.60;9.40;;;;;;;7.03;98.32;98737.23;102234;1273;138611;-67
2024/02/06 06:51:34;;;;;;;16.30;9.30;;;;;;;7.03;98.33;98734.63;102672;1267;97716;-67
2024/02/06 06:54:01;;;;;;;16.50;9.80;;;;;;;7.04;98.32;98731.50;101581;1273;1002374;-67
2024/02/06 06:56:28;;;;;;;16.60;9.40;;;;;;;7.04;98.29;98739.79;102297;1273;138500;-66
2024/02/06 06:58:55;;;;;;;16.00;9.20;;;;;;;7.04;98.17;98740.66;102375;1267;110394;-66
2024/02/06 07:01:22;;;;;;;13.70;9.30;;;;;;;7.03;98.10;98741.56;102014;1273;138444;-67
2024/02/06 07:03:50;;;;;;;17.10;9.70;;;;;;;7.05;97.91;98738.54;102288;1268;97934;-67
2024/02/06 07:06:17;;;;;;;14.10;9.40;;;;;;;7.05;97.81;98736.27;102340;1267;108224;-67
2024/02/06 07:08:44;;;;;;;17.20;8.80;;;;;;;7.06;97.74;98743.84;102227;1272;138265;-67
2024/02/06 07:11:11;;;;;;;17.60;9.00;;;;;;;7.07;97.69;98734.31;102396;1267;111510;-65
2024/02/06 07:13:39;;;;;;;16.30;8.70;;;;;;;7.07;97.63;98732.20;102243;1273;139398;-68
2024/02/06 07:16:07;;;;;;;13.20;8.80;;;;;;;7.08;97.60;98729.77;102416;1267;98353;-67
2024/02/06 07:18:34;;;;;;;15.60;9.10;;;;;;;7.09;97.38;98733.36;102372;1267;108103;-68
2024/02/06 07:21:01;;;;;;;17.50;8.90;;;;;;;7.09;97.57;98729.71;102274;1272;138175;-67
2024/02/06 07:23:28;;;;;;;15.40;8.40;;;;;;;7.11;97.30;98731.52;102405;1267;111344;-67
2024/02/06 07:25:56;;;;;;;12.40;8.80;;;;;;;7.11;97.23;98731.70;102152;1268;139889;-66
2024/02/06 07:28:24;;;;;;;14.30;8.80;;;;;;;7.11;97.33;98725.30;102390;1267;98171;-67
2024/02/06 07:30:56;;;;;;;14.60;8.70;;;;;;;7.12;97.19;98738.59;102247;1273;106769;-67
2024/02/06 07:33:23;;;;;;;16.50;8.60;;;;;;;7.11;97.09;98730.32;102307;1268;97707;-66
2024/02/06 07:35:53;;;;;;;19.60;8.80;;;;;;;7.11;97.23;98718.05;102366;1270;111386;-69
2024/02/06 07:38:22;;;;;;;11.90;8.90;;;;;;;7.12;97.10;98734.26;102198;1268;138267;-67
2024/02/06 07:40:56;;;;;;;14.70;8.40;;;;;;;7.13;96.95;98732.83;102435;1268;97786;-67
2024/02/06 07:43:25;;;;;;;11.80;7.90;;;;;;;7.14;96.71;98729.32;102191;1270;138472;-67
2024/02/06 07:45:52;;;;;;;14.50;8.10;;;;;;;7.16;96.67;98728.55;102379;1273;97822;-67
2024/02/06 07:48:19;;;;;;;14.30;7.40;;;;;;;7.18;96.56;98727.95;102411;1280;111059;-67
2024/02/06 07:50:48;;;;;;;14.50;7.60;;;;;;;7.20;96.28;98714.92;102170;1273;139974;-66
2024/02/06 07:57:23;;;;;;;11.60;7.50;;;;;;;7.25;95.57;98727.13;101923;1267;108239;-68
2024/02/06 07:59:50;;;;;;;13.70;6.40;;;;;;;7.27;95.43;98731.01;102243;1273;97842;-68
2024/02/06 08:02:17;;;;;;;13.00;7.30;;;;;;;7.30;95.25;98739.38;102119;1267;138186;-69
2024/02/06 08:04:46;;;;;;;14.20;7.00;;;;;;;7.33;95.12;98732.34;102131;1270;106801;-66
2024/02/06 08:07:13;;;;;;;8.60;6.30;;;;;;;7.35;94.79;98729.83;102265;1273;138824;-67
2024/02/06 08:09:41;;;;;;;10.90;6.50;;;;;;;7.36;94.54;98725.27;102297;1270;108128;-66
2024/02/06 08:12:09;;;;;;;13.50;6.50;;;;;;;7.37;94.46;98729.73;102191;1273;97918;-66
2024/02/06 08:14:38;;;;;;;12.20;6.30;;;;;;;7.38;94.31;98724.85;102346;1269;139795;-65
2024/02/06 08:17:05;;;;;;;9.20;6.00;;;;;;;7.39;94.17;98735.36;102274;1267;109228;-66
2024/02/06 08:19:32;;;;;;;9.70;5.80;;;;;;;7.41;94.19;98739.27;102068;1267;138370;-67
2024/02/06 08:22:02;;;;;;;12.50;5.90;;;;;;;7.41;94.00;98739.96;102130;1267;107141;-68
2024/02/06 08:24:29;;;;;;;9.80;5.50;;;;;;;7.42;93.91;98741.81;102297;1272;97869;-68
2024/02/06 08:26:58;;;;;;;8.20;5.70;;;;;;;7.42;93.84;98732.98;102111;1272;138051;-67
2024/02/06 08:29:25;;;;;;;10.20;6.00;;;;;;;7.42;93.87;98735.58;102085;1272;107828;-67
2024/02/06 08:31:52;;;;;;;9.30;5.20;;;;;;;7.42;93.87;98736.25;102063;1267;140461;-68
2024/02/06 08:34:19;;;;;;;16.90;5.30;;;;;;;7.43;93.82;98741.23;102160;1267;108854;-68
2024/02/06 08:36:47;;;;;;;10.20;5.60;;;;;;;7.44;93.59;98736.83;102212;1273;97799;-68
2024/02/06 08:39:15;;;;;;;11.10;5.00;;;;;;;7.47;93.44;98738.44;102150;1267;138274;-67
2024/02/06 08:41:42;;;;;;;9.90;5.90;;;;;;;7.49;93.32;98738.52;102118;1272;107711;-67
2024/02/06 08:44:09;;;;;;;11.10;5.60;;;;;;;7.50;93.33;98741.58;102005;1272;138340;-74
2024/02/06 08:46:37;;;;;;;11.10;5.20;;;;;;;7.53;93.20;98747.02;102050;1267;107714;-67
2024/02/06 08:49:05;;;;;;;7.80;5.40;;;;;;;7.54;93.21;98750.08;102154;1267;97799;-66
2024/02/06 08:51:32;;;;;;;9.40;5.30;;;;;;;7.56;93.19;98750.89;102113;1270;110144;-66
2024/02/06 08:53:58;;;;;;;12.40;5.40;;;;;;;7.57;93.17;98744.92;102219;1269;108863;-66
2024/02/06 08:56:26;;;;;;;7.30;5.20;;;;;;;7.57;93.22;98750.48;102021;1272;138774;-67
2024/02/06 08:58:54;;;;;;;11.00;5.50;;;;;;;7.59;93.20;98752.48;102191;1270;107115;-64
2024/02/06 09:01:25;;;;;;;9.50;5.50;;;;;;;7.57;93.27;98744.05;102122;1270;138875;-66
2024/02/06 09:03:52;;;;;;;9.50;5.60;;;;;;;7.59;93.20;98746.24;102124;1270;112883;-68
2024/02/06 09:06:27;;;;;;;9.40;5.60;;;;;;;7.55;93.35;98750.21;102179;1267;105720;-68
2024/02/06 09:08:58;;;;;;;8.50;5.40;;;;;;;7.55;93.21;98742.44;102079;1273;138976;-68
2024/02/06 09:11:26;;;;;;;10.00;5.80;;;;;;;7.53;93.28;98747.17;102263;1270;107657;-68
2024/02/06 09:13:54;;;;;;;10.60;5.40;;;;;;;7.54;93.29;98748.86;102051;1273;138992;-67
2024/02/06 09:16:22;;;;;;;10.80;5.40;;;;;;;7.54;93.11;98744.71;102091;1269;111826;-68
2024/02/06 09:18:49;;;;;;;12.90;5.90;;;;;;;7.55;93.01;98749.16;102109;1270;108788;-68
2024/02/06 09:21:18;;;;;;;9.40;6.10;;;;;;;7.56;92.80;98740.66;102107;1267;139117;-68
2024/02/06 09:23:46;;;;;;;11.30;6.30;;;;;;;7.57;92.80;98741.15;102168;1270;107259;-66
2024/02/06 09:26:16;;;;;;;13.00;6.40;;;;;;;7.57;92.87;98743.20;102018;1269;138507;-67
2024/02/06 09:28:44;;;;;;;11.90;5.50;;;;;;;7.60;92.75;98728.57;102189;1270;110969;-69
2024/02/06 09:31:11;;;;;;;8.10;5.50;;;;;;;7.62;92.77;98737.98;102102;1272;138516;-68
2024/02/06 09:33:39;;;;;;;8.70;5.00;;;;;;;7.64;92.71;98737.52;102275;1270;98085;-66
2024/02/06 09:36:09;;;;;;;8.40;4.90;;;;;;;7.65;92.42;98731.62;102219;1270;108464;-67
2024/02/06 09:38:37;;;;;;;11.10;5.40;;;;;;;7.65;91.97;98735.23;102209;1270;138085;-67
2024/02/06 09:41:06;;;;;;;9.60;5.30;;;;;;;7.65;91.92;98732.45;102303;1270;110695;-68
2024/02/06 09:43:36;;;;;;;8.60;5.70;;;;;;;7.66;91.71;98738.13;102074;1273;138421;-68
2024/02/06 09:46:04;;;;;;;8.40;5.30;;;;;;;7.67;91.50;98736.38;102225;1269;98138;-68
2024/02/06 09:48:31;;;;;;;8.70;5.00;;;;;;;7.69;91.42;98741.30;102213;1269;108708;-68
2024/02/06 09:50:59;;;;;;;11.20;5.30;;;;;;;7.71;91.27;98741.02;102072;1267;138570;-68
2024/02/06 09:53:30;;;;;;;9.60;5.50;;;;;;;7.73;90.92;98746.33;102208;1270;112338;-68
2024/02/06 09:55:57;;;;;;;11.20;5.30;;;;;;;7.74;90.76;98740.70;102094;1267;138774;-68
2024/02/06 09:58:25;;;;;;;10.30;5.40;;;;;;;7.78;90.64;98736.92;102192;1269;98376;-68
2024/02/06 10:00:54;;;;;;;12.10;5.60;;;;;;;7.79;90.44;98748.45;102235;1270;109059;-67
2024/02/06 10:03:26;;;;;;;11.10;5.00;;;;;;;7.83;90.36;98744.65;102050;1273;138208;-68
2024/02/06 10:05:56;;;;;;;8.50;4.60;;;;;;;7.85;90.04;98736.91;101917;1269;111319;-68
2024/02/06 10:08:23;;;;;;;10.00;4.40;;;;;;;7.88;90.07;98742.33;102070;1270;139300;-67
2024/02/06 10:10:53;;;;;;;10.80;4.60;;;;;;;7.91;89.85;98737.21;102173;1270;98364;-67
2024/02/06 10:13:22;;;;;;;8.30;4.50;;;;;;;7.93;89.67;98732.63;101904;1273;139112;-66
2024/02/06 10:15:49;;;;;;;9.00;4.80;;;;;;;7.94;89.32;98738.45;101956;1267;97974;-67
2024/02/06 10:18:16;;;;;;;7.40;4.20;;;;;;;7.95;89.15;98730.25;101979;1270;110724;-66
2024/02/06 10:20:45;;;;;;;9.50;4.20;;;;;;;7.96;88.91;98729.69;102009;1269;138660;-66
2024/02/06 10:23:15;;;;;;;8.10;4.00;;;;;;;7.97;88.98;98738.47;102175;1273;97828;-67
2024/02/06 10:25:42;;;;;;;7.40;3.90;;;;;;;8.00;88.86;98724.69;102357;1273;139160;-67
2024/02/06 10:28:09;;;;;;;9.30;5.10;;;;;;;8.00;88.47;98723.95;102116;1269;97885;-67
2024/02/06 10:30:36;;;;;;;8.20;4.30;;;;;;;8.03;88.28;98712.57;102148;1270;112540;-69
2024/02/06 10:33:13;;;;;;;9.90;4.30;;;;;;;8.05;87.91;98724.58;101985;1270;138926;-67
2024/02/06 10:35:44;;;;;;;8.30;4.30;;;;;;;8.07;88.03;98724.16;102162;1273;98394;-67
2024/02/06 10:38:14;;;;;;;6.50;3.90;;;;;;;8.06;87.86;98718.13;102027;1269;138198;-69
2024/02/06 10:40:42;;;;;;;8.20;4.20;;;;;;;8.07;87.96;98715.86;102151;1273;97720;-70
2024/02/06 10:43:10;;;;;;;7.70;4.10;;;;;;;8.09;87.86;98720.45;101957;1270;138338;-69
2024/02/06 10:46:00;;;;;;;8.00;4.20;;;;;;;8.09;87.96;98709.73;102081;1270;107184;-69
2024/02/06 10:48:27;;;;;;;8.10;4.00;;;;;;;8.09;87.71;98715.26;102107;1270;97999;-70
2024/02/06 10:51:00;;;;;;;9.80;4.10;;;;;;;8.07;87.74;98705.13;102074;1269;139264;-70
2024/02/06 10:53:28;;;;;;;6.50;4.10;;;;;;;8.07;87.50;98700.95;102163;1270;99022;-69
2024/02/06 10:56:05;;;;;;;11.80;4.30;;;;;;;8.06;87.53;98701.52;101922;1270;138147;-67
2024/02/06 10:58:39;;;;;;;6.50;4.10;;;;;;;8.04;87.53;98708.00;102107;1271;107079;-69
2024/02/06 11:01:08;;;;;;;7.50;4.20;;;;;;;8.02;87.54;98684.25;102131;1269;99721;-69
2024/02/06 11:03:42;;;;;;;8.60;4.40;;;;;;;8.06;87.50;98691.65;102089;1270;107745;-70
2024/02/06 11:06:26;;;;;;;6.90;3.90;;;;;;;8.09;87.47;98695.33;102060;1270;97825;-70
2024/02/06 11:08:55;;;;;;;8.40;4.50;;;;;;;8.09;87.32;98699.69;102004;1270;138222;-69
2024/02/06 11:11:23;;;;;;;8.30;4.50;;;;;;;8.09;87.34;98709.91;102162;1273;107589;-70
2024/02/06 11:13:52;;;;;;;9.60;5.20;;;;;;;8.08;87.39;98708.20;101967;1270;139877;-69
2024/02/06 11:16:22;;;;;;;7.40;4.50;;;;;;;8.07;87.39;98702.34;102124;1269;108105;-69
2024/02/06 11:18:59;;;;;;;10.30;4.80;;;;;;;8.07;87.23;98704.27;102260;1270;97799;-69
2024/02/06 11:21:25;;;;;;;;;;;;;;;8.06;87.21;98693.77;102364;1270;138317;-68
2024/02/06 11:23:55;;;;;;;8.20;4.80;;;;;;;8.03;87.35;98697.70;102005;1270;107583;-68
2024/02/06 11:26:22;;;;;;;9.20;4.40;;;;;;;8.02;87.31;98700.14;101897;1269;138410;-68
2024/02/06 11:28:51;;;;;;;7.90;4.20;;;;;;;8.02;87.23;98691.67;102257;1271;107404;-68
2024/02/06 11:31:19;;;;;;;9.20;5.10;;;;;;;8.03;87.01;98697.16;101902;1270;138303;-68
2024/02/06 11:34:35;;;;;;;6.50;4.50;;;;;;;8.04;87.06;98700.59;102070;1270;111854;-70